createdAt,value
2023-04-15T00:01:37.941Z,4.18
2023-04-15T00:04:05.061Z,4.45
2023-04-15T00:06:31.978Z,4.70
2023-04-15T00:08:59.010Z,4.45
2023-04-15T00:11:26.030Z,4.90
2023-04-15T00:13:53.002Z,4.60
2023-04-15T00:16:19.923Z,5.10
2023-04-15T00:18:46.792Z,4.70
2023-04-15T00:21:13.619Z,4.22
2023-04-15T00:23:40.601Z,4.78
2023-04-15T00:26:07.447Z,4.72
2023-04-15T00:28:34.333Z,4.40
2023-04-15T00:31:01.248Z,4.47
2023-04-15T00:33:28.078Z,4.32
2023-04-15T00:35:54.930Z,4.18
2023-04-15T00:38:21.686Z,3.90
2023-04-15T00:40:48.536Z,4.07
2023-04-15T00:43:17.550Z,4.82
2023-04-15T00:45:44.609Z,4.85
2023-04-15T00:48:12.378Z,4.30
2023-04-15T00:50:39.585Z,4.65
2023-04-15T00:53:06.360Z,4.78
2023-04-15T00:55:33.166Z,4.47
2023-04-15T00:57:59.972Z,4.82
2023-04-15T01:00:27.270Z,4.60
2023-04-15T01:02:54.215Z,5.00
2023-04-15T01:05:21.247Z,4.68
2023-04-15T01:07:48.789Z,4.32
2023-04-15T01:10:15.883Z,5.00
2023-04-15T01:12:43.276Z,4.82
2023-04-15T01:15:11.011Z,4.15
2023-04-15T01:17:39.391Z,4.20
2023-04-15T01:20:10.543Z,4.82
2023-04-15T01:22:38.338Z,4.55
2023-04-15T01:25:18.197Z,4.47
2023-04-15T01:27:45.301Z,4.60
2023-04-15T01:30:12.303Z,4.40
2023-04-15T01:32:39.464Z,4.90
2023-04-15T01:35:07.643Z,4.82
2023-04-15T01:37:34.756Z,4.60
2023-04-15T01:40:01.648Z,5.13
2023-04-15T01:42:28.443Z,4.80
2023-04-15T01:44:55.271Z,4.32
2023-04-15T01:47:22.383Z,4.50
2023-04-15T01:49:49.330Z,5.70
2023-04-15T01:52:16.176Z,4.60
2023-04-15T01:54:43.001Z,4.47
2023-04-15T01:57:10.128Z,4.60
2023-04-15T01:59:37.300Z,5.22
2023-04-15T02:02:05.407Z,4.95
2023-04-15T02:04:32.634Z,5.65
2023-04-15T02:07:00.670Z,4.82
2023-04-15T02:09:27.873Z,5.18
2023-04-15T02:11:54.708Z,5.10
2023-04-15T02:14:21.512Z,5.22
2023-04-15T02:16:48.415Z,5.07
2023-04-15T02:19:16.285Z,5.43
2023-04-15T02:21:43.125Z,4.88
2023-04-15T02:24:10.113Z,4.93
2023-04-15T02:26:37.007Z,5.68
2023-04-15T02:29:04.195Z,5.47
2023-04-15T02:31:33.977Z,5.50
2023-04-15T02:34:02.939Z,5.32
2023-04-15T02:36:31.658Z,5.63
2023-04-15T02:38:58.798Z,6.25
2023-04-15T02:41:28.358Z,5.45
2023-04-15T02:43:55.738Z,5.45
2023-04-15T02:46:23.052Z,5.60
2023-04-15T02:48:50.988Z,5.38
2023-04-15T02:51:22.810Z,5.00
2023-04-15T02:53:50.487Z,5.13
2023-04-15T02:56:19.223Z,5.40
2023-04-15T02:58:46.382Z,5.80
2023-04-15T03:01:13.622Z,5.88
2023-04-15T03:03:41.451Z,5.47
2023-04-15T03:06:08.921Z,5.88
2023-04-15T03:08:36.302Z,5.95
2023-04-15T03:11:03.389Z,5.82
2023-04-15T03:13:30.394Z,5.80
2023-04-15T03:15:58.942Z,5.60
2023-04-15T03:18:26.798Z,6.05
2023-04-15T03:20:53.669Z,5.43
2023-04-15T03:23:20.809Z,6.22
2023-04-15T03:25:48.278Z,6.47
2023-04-15T03:28:15.686Z,5.72
2023-04-15T03:30:42.736Z,5.90
2023-04-15T03:33:09.681Z,7.22
2023-04-15T03:35:37.532Z,5.80
2023-04-15T03:38:04.415Z,5.97
2023-04-15T03:40:31.196Z,5.93
2023-04-15T03:42:57.992Z,6.05
2023-04-15T03:45:25.440Z,6.25
2023-04-15T03:47:52.540Z,6.40
2023-04-15T03:50:19.486Z,6.43
2023-04-15T03:52:46.460Z,6.38
2023-04-15T03:55:13.362Z,6.20
2023-04-15T03:57:40.318Z,6.20
2023-04-15T04:00:10.115Z,6.68
2023-04-15T04:02:39.749Z,6.28
2023-04-15T04:05:06.938Z,6.65
2023-04-15T04:07:33.734Z,6.38
2023-04-15T04:10:00.628Z,6.57
2023-04-15T04:12:27.414Z,6.43
2023-04-15T04:14:54.217Z,6.28
2023-04-15T04:17:21.038Z,6.70
2023-04-15T04:19:47.781Z,6.60
2023-04-15T04:22:14.620Z,7.03
2023-04-15T04:24:41.399Z,7.00
2023-04-15T04:27:08.175Z,6.50
2023-04-15T04:29:34.987Z,6.22
2023-04-15T04:32:01.909Z,6.28
2023-04-15T04:34:28.763Z,6.15
2023-04-15T04:36:55.725Z,7.07
2023-04-15T04:39:22.574Z,6.93
2023-04-15T04:41:50.574Z,7.03
2023-04-15T04:44:17.419Z,7.10
2023-04-15T04:46:44.413Z,6.78
2023-04-15T04:49:11.241Z,7.40
2023-04-15T04:51:38.393Z,6.97
2023-04-15T04:54:05.327Z,6.47
2023-04-15T04:56:32.213Z,6.68
2023-04-15T04:58:59.158Z,6.57
2023-04-15T05:01:27.467Z,6.95
2023-04-15T05:03:55.508Z,7.03
2023-04-15T05:06:22.417Z,7.00
2023-04-15T05:08:49.244Z,6.35
2023-04-15T05:11:16.154Z,7.32
2023-04-15T05:13:42.998Z,6.78
2023-04-15T05:16:09.774Z,6.72
2023-04-15T05:18:36.749Z,7.65
2023-04-15T05:21:03.810Z,7.10
2023-04-15T05:23:30.959Z,7.32
2023-04-15T05:25:57.807Z,6.45
2023-04-15T05:28:24.640Z,6.82
2023-04-15T05:30:51.786Z,7.10
2023-04-15T05:33:19.092Z,6.93
2023-04-15T05:35:46.226Z,7.38
2023-04-15T05:38:13.018Z,7.50
2023-04-15T05:40:39.959Z,7.15
2023-04-15T05:43:06.771Z,6.80
2023-04-15T05:45:33.610Z,6.88
2023-04-15T05:48:00.442Z,7.00
2023-04-15T05:50:27.366Z,7.00
2023-04-15T05:52:54.317Z,7.03
2023-04-15T05:55:21.187Z,7.20
2023-04-15T05:57:48.022Z,7.00
2023-04-15T06:00:15.344Z,6.75
2023-04-15T06:02:42.538Z,7.03
2023-04-15T06:05:10.780Z,7.82
2023-04-15T06:07:38.840Z,7.07
2023-04-15T06:10:07.200Z,8.48
2023-04-15T06:12:34.197Z,6.72
2023-04-15T06:15:01.010Z,7.80
2023-04-15T06:17:28.060Z,7.32
2023-04-15T06:19:55.779Z,7.53
2023-04-15T06:22:23.592Z,7.57
2023-04-15T06:24:51.520Z,8.15
2023-04-15T06:27:18.966Z,7.70
2023-04-15T06:29:46.183Z,7.75
2023-04-15T06:32:13.036Z,8.25
2023-04-15T06:34:40.251Z,8.05
2023-04-15T06:37:07.152Z,8.75
2023-04-15T06:39:34.022Z,8.48
2023-04-15T06:42:01.480Z,7.75
2023-04-15T06:44:29.301Z,7.85
2023-04-15T06:46:56.579Z,8.00
2023-04-15T06:49:23.376Z,8.07
2023-04-15T06:51:51.314Z,8.00
2023-04-15T06:54:18.363Z,8.43
2023-04-15T06:56:45.528Z,8.60
2023-04-15T06:59:12.878Z,8.68
2023-04-15T07:01:42.788Z,8.20
2023-04-15T07:04:09.800Z,8.68
2023-04-15T07:06:36.845Z,7.43
2023-04-15T07:09:05.409Z,9.35
2023-04-15T07:11:32.667Z,8.95
2023-04-15T07:13:59.537Z,8.93
2023-04-15T07:16:28.626Z,9.15
2023-04-15T07:18:57.127Z,9.75
2023-04-15T07:21:25.673Z,8.73
2023-04-15T07:23:52.566Z,8.93
2023-04-15T07:26:19.532Z,8.57
2023-04-15T07:28:47.429Z,8.68
2023-04-15T07:31:14.924Z,9.85
2023-04-15T07:33:41.817Z,8.50
2023-04-15T07:36:09.189Z,8.88
2023-04-15T07:38:35.971Z,9.40
2023-04-15T07:41:03.327Z,8.63
2023-04-15T07:43:30.178Z,8.40
2023-04-15T07:45:56.955Z,7.90
2023-04-15T07:48:23.764Z,7.50
2023-04-15T07:50:50.610Z,6.72
2023-04-15T07:53:17.468Z,6.93
2023-04-15T07:55:44.335Z,6.38
2023-04-15T07:58:11.547Z,5.50
2023-04-15T08:00:38.514Z,5.45
2023-04-15T08:03:05.897Z,6.05
2023-04-15T08:05:33.066Z,6.00
2023-04-15T08:08:00.036Z,5.72
2023-04-15T08:10:27.265Z,6.60
2023-04-15T08:12:55.033Z,6.85
2023-04-15T08:15:22.173Z,6.40
2023-04-15T08:17:49.146Z,6.90
2023-04-15T08:20:16.244Z,6.57
2023-04-15T08:22:43.178Z,6.97
2023-04-15T08:25:10.464Z,6.60
2023-04-15T08:27:37.616Z,5.90
2023-04-15T08:30:05.317Z,6.57
2023-04-15T08:32:32.366Z,6.45
2023-04-15T08:34:59.253Z,6.53
2023-04-15T08:37:26.789Z,6.03
2023-04-15T08:39:53.574Z,5.80
2023-04-15T08:42:31.309Z,5.95
2023-04-15T08:45:03.114Z,5.57
2023-04-15T08:47:34.337Z,5.53
2023-04-15T08:50:04.345Z,5.78
2023-04-15T08:52:32.134Z,5.25
2023-04-15T08:55:03.248Z,5.20
2023-04-15T08:57:30.136Z,5.70
2023-04-15T08:59:57.629Z,5.55
2023-04-15T09:02:27.247Z,5.10
2023-04-15T09:04:54.317Z,4.95
2023-04-15T09:07:21.259Z,4.13
2023-04-15T09:09:48.865Z,4.32
2023-04-15T09:12:16.968Z,3.50
2023-04-15T09:14:49.300Z,3.75
2023-04-15T09:17:21.116Z,3.42
2023-04-15T09:19:48.032Z,3.30
2023-04-15T09:22:15.820Z,3.15
2023-04-15T09:24:43.375Z,3.35
2023-04-15T09:27:11.034Z,3.17
2023-04-15T09:29:37.903Z,3.38
2023-04-15T09:32:15.871Z,3.30
2023-04-15T09:34:43.258Z,3.72
2023-04-15T09:37:11.238Z,3.35
2023-04-15T09:39:52.651Z,3.95
2023-04-15T09:42:26.832Z,3.05
2023-04-15T09:44:54.062Z,4.53
2023-04-15T09:47:31.582Z,3.60
2023-04-15T09:50:00.373Z,3.75
2023-04-15T09:52:28.721Z,3.35
2023-04-15T09:55:00.208Z,3.85
2023-04-15T09:57:36.394Z,3.40
2023-04-15T10:00:08.832Z,4.00
2023-04-15T10:02:37.152Z,3.15
2023-04-15T10:05:04.688Z,2.80
2023-04-15T10:07:32.351Z,2.50
2023-04-15T10:10:02.303Z,2.55
2023-04-15T10:12:31.123Z,2.88
2023-04-15T10:15:07.707Z,2.40
2023-04-15T10:17:37.163Z,2.60
2023-04-15T10:20:06.191Z,2.78
2023-04-15T10:22:33.608Z,2.45
2023-04-15T10:25:01.074Z,2.35
2023-04-15T10:27:28.933Z,3.13
2023-04-15T10:29:57.190Z,2.75
2023-04-15T10:32:27.055Z,3.10
2023-04-15T10:34:55.122Z,2.55
2023-04-15T10:37:37.254Z,2.80
2023-04-15T10:40:34.669Z,2.90
2023-04-15T10:43:03.058Z,3.00
2023-04-15T10:45:37.845Z,2.80
2023-04-15T10:48:08.828Z,2.78
2023-04-15T10:50:37.697Z,3.05
2023-04-15T10:53:07.099Z,3.63
2023-04-15T10:55:35.291Z,3.78
2023-04-15T10:58:03.475Z,3.15
2023-04-15T11:00:32.844Z,3.72
2023-04-15T11:03:08.983Z,3.72
2023-04-15T11:05:41.970Z,2.75
2023-04-15T11:08:13.214Z,3.28
2023-04-15T11:10:39.894Z,3.80
2023-04-15T11:13:25.179Z,3.10
2023-04-15T11:15:56.750Z,2.85
2023-04-15T11:18:28.534Z,2.80
2023-04-15T11:21:09.618Z,2.90
2023-04-15T11:23:41.137Z,2.70
2023-04-15T11:26:12.054Z,2.63
2023-04-15T11:28:44.884Z,2.17
2023-04-15T11:31:17.912Z,2.08
2023-04-15T11:34:01.400Z,1.63
2023-04-15T11:36:31.797Z,1.50
2023-04-15T11:38:59.849Z,1.75
2023-04-15T11:41:27.071Z,1.83
2023-04-15T11:43:53.914Z,1.80
2023-04-15T11:46:22.722Z,1.63
2023-04-15T11:48:49.794Z,1.45
2023-04-15T11:51:16.727Z,2.08
2023-04-15T11:53:49.615Z,1.70
2023-04-15T11:56:26.628Z,1.55
2023-04-15T11:59:02.967Z,1.90
2023-04-15T12:01:39.704Z,2.13
2023-04-15T12:04:20.879Z,1.90
2023-04-15T12:06:49.294Z,1.80
2023-04-15T12:09:16.993Z,1.60
2023-04-15T12:11:57.319Z,1.70
2023-04-15T12:14:29.869Z,1.63
2023-04-15T12:17:05.332Z,1.42
2023-04-15T12:19:42.778Z,2.08
2023-04-15T12:22:11.320Z,1.90
2023-04-15T12:24:40.351Z,1.55
2023-04-15T12:27:09.721Z,1.55
2023-04-15T12:29:39.009Z,1.20
2023-04-15T12:32:14.737Z,1.45
2023-04-15T12:34:50.834Z,1.63
2023-04-15T12:37:17.979Z,1.63
2023-04-15T12:39:48.926Z,1.45
2023-04-15T12:42:17.711Z,1.48
2023-04-15T12:44:44.934Z,1.30
2023-04-15T12:47:13.750Z,1.33
2023-04-15T12:49:41.079Z,1.55
2023-04-15T12:52:08.306Z,1.67
2023-04-15T12:54:35.979Z,1.50
2023-04-15T12:57:05.924Z,2.03
2023-04-15T12:59:33.556Z,1.60
2023-04-15T13:02:01.180Z,1.60
2023-04-15T13:04:30.669Z,1.33
2023-04-15T13:06:57.906Z,1.70
2023-04-15T13:09:25.040Z,1.25
2023-04-15T13:11:52.626Z,1.23
2023-04-15T13:14:19.825Z,1.50
2023-04-15T13:16:47.082Z,1.35
2023-04-15T13:19:14.227Z,1.10
2023-04-15T13:21:41.479Z,1.25
2023-04-15T13:24:09.326Z,1.30
2023-04-15T13:26:36.367Z,1.30
2023-04-15T13:29:04.784Z,1.08
2023-04-15T13:31:31.637Z,1.15
2023-04-15T13:33:58.514Z,1.45
2023-04-15T13:36:26.329Z,1.30
2023-04-15T13:38:53.177Z,1.20
2023-04-15T13:41:21.128Z,1.17
2023-04-15T13:43:47.985Z,1.13
2023-04-15T13:46:15.010Z,1.00
2023-04-15T13:48:41.982Z,0.80
2023-04-15T13:51:08.806Z,1.10
2023-04-15T13:53:38.166Z,1.00
2023-04-15T13:56:10.271Z,1.08
2023-04-15T13:58:38.305Z,1.00
2023-04-15T14:01:07.078Z,1.02
2023-04-15T14:03:38.009Z,0.90
2023-04-15T14:06:06.423Z,0.80
2023-04-15T14:08:33.734Z,0.90
2023-04-15T14:11:00.725Z,0.90
2023-04-15T14:13:27.621Z,1.05
2023-04-15T14:15:54.550Z,0.68
2023-04-15T14:18:21.406Z,0.80
2023-04-15T14:20:48.160Z,0.80
2023-04-15T14:23:15.030Z,1.00
2023-04-15T14:25:41.914Z,0.93
2023-04-15T14:28:08.811Z,0.98
2023-04-15T14:30:35.874Z,1.02
2023-04-15T14:33:03.357Z,1.42
2023-04-15T14:35:30.822Z,1.13
2023-04-15T14:37:58.245Z,0.82
2023-04-15T14:40:25.023Z,0.90
2023-04-15T14:42:51.841Z,0.98
2023-04-15T14:45:18.713Z,1.10
2023-04-15T14:47:45.617Z,1.05
2023-04-15T14:50:12.600Z,1.00
2023-04-15T14:52:39.513Z,1.33
2023-04-15T14:55:07.849Z,0.95
2023-04-15T14:57:34.776Z,1.08
2023-04-15T15:00:01.857Z,1.40
2023-04-15T15:02:38.473Z,1.20
2023-04-15T15:05:06.958Z,0.70
2023-04-15T15:07:33.872Z,1.25
2023-04-15T15:10:00.804Z,1.00
2023-04-15T15:12:27.601Z,1.08
2023-04-15T15:14:56.076Z,0.80
2023-04-15T15:17:23.014Z,1.10
2023-04-15T15:19:49.883Z,1.45
2023-04-15T15:22:18.466Z,1.00
2023-04-15T15:24:46.368Z,0.82
2023-04-15T15:27:13.221Z,0.80
2023-04-15T15:29:40.287Z,0.93
2023-04-15T15:32:07.539Z,1.08
2023-04-15T15:34:34.403Z,1.48
2023-04-15T15:37:01.600Z,1.40
2023-04-15T15:39:28.672Z,1.17
2023-04-15T15:41:55.555Z,1.20
2023-04-15T15:44:22.562Z,1.23
2023-04-15T15:46:51.132Z,1.48
2023-04-15T15:49:18.221Z,0.98
2023-04-15T15:51:45.806Z,1.73
2023-04-15T15:54:13.072Z,2.60
2023-04-15T15:56:39.974Z,2.85
2023-04-15T15:59:06.972Z,2.30
2023-04-15T16:01:34.335Z,3.35
2023-04-15T16:04:01.476Z,2.30
2023-04-15T16:06:28.737Z,1.30
2023-04-15T16:08:55.576Z,1.13
2023-04-15T16:11:23.241Z,2.10
2023-04-15T16:13:50.162Z,2.83
2023-04-15T16:16:17.116Z,2.47
2023-04-15T16:18:43.997Z,1.73
2023-04-15T16:21:11.188Z,1.50
2023-04-15T16:23:38.559Z,1.45
2023-04-15T16:26:06.470Z,1.35
2023-04-15T16:28:33.337Z,1.30
2023-04-15T16:31:00.359Z,1.55
2023-04-15T16:33:27.168Z,1.83
2023-04-15T16:35:53.986Z,1.77
2023-04-15T16:38:21.076Z,1.42
2023-04-15T16:40:47.892Z,2.83
2023-04-15T16:43:14.708Z,1.65
2023-04-15T16:45:41.616Z,2.55
2023-04-15T16:48:08.399Z,2.20
2023-04-15T16:50:37.229Z,1.83
2023-04-15T16:53:04.116Z,1.63
2023-04-15T16:55:31.164Z,1.38
2023-04-15T16:58:03.218Z,1.73
2023-04-15T17:00:32.863Z,0.93
2023-04-15T17:03:01.244Z,1.50
2023-04-15T17:05:29.174Z,1.25
2023-04-15T17:07:56.113Z,1.00
2023-04-15T17:10:23.360Z,2.03
2023-04-15T17:12:52.003Z,2.60
2023-04-15T17:15:19.827Z,2.90
2023-04-15T17:17:46.701Z,2.53
2023-04-15T17:20:14.099Z,4.93
2023-04-15T17:22:41.026Z,2.67
2023-04-15T17:25:08.321Z,2.92
2023-04-15T17:27:35.780Z,2.05
2023-04-15T17:30:02.567Z,1.90
2023-04-15T17:32:32.034Z,1.95
2023-04-15T17:34:59.169Z,1.98
2023-04-15T17:37:26.676Z,2.50
2023-04-15T17:39:53.482Z,2.60
2023-04-15T17:42:21.497Z,3.13
2023-04-15T17:44:48.406Z,1.67
2023-04-15T17:47:15.487Z,2.17
2023-04-15T17:49:42.348Z,1.38
2023-04-15T17:52:09.208Z,1.55
2023-04-15T17:54:36.155Z,2.08
2023-04-15T17:57:03.186Z,2.28
2023-04-15T17:59:30.222Z,5.28
2023-04-15T18:01:58.662Z,3.60
2023-04-15T18:04:26.792Z,2.35
2023-04-15T18:06:54.149Z,1.60
2023-04-15T18:09:21.096Z,1.10
2023-04-15T18:11:48.864Z,1.02
2023-04-15T18:14:30.794Z,1.40
2023-04-15T18:17:00.585Z,1.48
2023-04-15T18:19:27.691Z,1.20
2023-04-15T18:21:54.599Z,1.40
2023-04-15T18:24:22.403Z,1.40
2023-04-15T18:26:49.486Z,1.20
2023-04-15T18:29:16.580Z,1.70
2023-04-15T18:31:43.886Z,1.77
2023-04-15T18:34:11.017Z,1.30
2023-04-15T18:36:38.079Z,1.40
2023-04-15T18:39:05.485Z,1.05
2023-04-15T18:41:32.727Z,1.70
2023-04-15T18:43:59.563Z,1.60
2023-04-15T18:46:27.543Z,1.35
2023-04-15T18:48:54.378Z,1.38
2023-04-15T18:51:21.356Z,1.88
2023-04-15T18:53:48.320Z,1.52
2023-04-15T18:56:15.426Z,2.15
2023-04-15T18:59:09.302Z,1.42
2023-04-15T19:01:31.630Z,1.65
2023-04-15T19:03:59.374Z,1.33
2023-04-15T19:06:27.148Z,1.42
2023-04-15T19:08:54.501Z,1.67
2023-04-15T19:11:21.741Z,1.60
2023-04-15T19:13:48.572Z,2.15
2023-04-15T19:16:15.425Z,1.15
2023-04-15T19:18:42.940Z,1.15
2023-04-15T19:21:14.224Z,0.90
2023-04-15T19:23:42.923Z,0.95
2023-04-15T19:26:11.548Z,1.15
2023-04-15T19:28:38.563Z,1.00
2023-04-15T19:31:05.723Z,1.20
2023-04-15T19:33:32.636Z,1.15
2023-04-15T19:36:06.105Z,1.27
2023-04-15T19:38:37.743Z,1.58
2023-04-15T19:41:04.582Z,1.13
2023-04-15T19:43:32.986Z,1.10
2023-04-15T19:46:00.173Z,1.02
2023-04-15T19:48:27.067Z,0.95
2023-04-15T19:50:53.986Z,0.90
2023-04-15T19:53:20.816Z,1.63
2023-04-15T19:55:48.348Z,0.90
2023-04-15T19:58:15.432Z,1.27
2023-04-15T20:00:42.378Z,1.48
2023-04-15T20:03:09.227Z,1.30
2023-04-15T20:05:36.105Z,0.95
2023-04-15T20:08:03.154Z,1.20
2023-04-15T20:10:31.616Z,1.30
2023-04-15T20:12:58.553Z,1.00
2023-04-15T20:15:25.957Z,0.95
2023-04-15T20:17:52.882Z,1.10
2023-04-15T20:20:20.272Z,1.27
2023-04-15T20:22:47.740Z,1.52
2023-04-15T20:25:14.815Z,1.00
2023-04-15T20:27:41.609Z,1.15
2023-04-15T20:30:09.148Z,1.20
2023-04-15T20:32:36.446Z,1.10
2023-04-15T20:35:07.192Z,1.17
2023-04-15T20:37:34.305Z,1.40
2023-04-15T20:40:01.760Z,1.00
2023-04-15T20:42:34.268Z,1.20
2023-04-15T20:45:01.260Z,1.38
2023-04-15T20:47:28.386Z,1.40
2023-04-15T20:49:55.424Z,1.05
2023-04-15T20:52:22.315Z,1.17
2023-04-15T20:54:49.109Z,1.45
2023-04-15T20:57:19.878Z,0.98
2023-04-15T20:59:46.912Z,1.42
2023-04-15T21:02:13.828Z,1.65
2023-04-15T21:04:40.956Z,1.23
2023-04-15T21:07:07.712Z,1.88
2023-04-15T21:09:34.528Z,1.70
2023-04-15T21:12:02.199Z,1.20
2023-04-15T21:14:29.751Z,1.75
2023-04-15T21:16:59.676Z,1.65
2023-04-15T21:19:26.564Z,1.13
2023-04-15T21:21:53.396Z,1.50
2023-04-15T21:24:20.530Z,1.20
2023-04-15T21:26:47.332Z,1.75
2023-04-15T21:29:14.495Z,1.80
2023-04-15T21:31:41.963Z,1.60
2023-04-15T21:34:09.728Z,1.58
2023-04-15T21:36:38.417Z,1.50
2023-04-15T21:39:06.115Z,1.30
2023-04-15T21:41:33.269Z,1.20
2023-04-15T21:44:00.253Z,1.70
2023-04-15T21:46:32.951Z,1.33
2023-04-15T21:49:00.244Z,1.42
2023-04-15T21:51:27.622Z,1.88
2023-04-15T21:53:54.387Z,1.10
2023-04-15T21:56:23.002Z,1.23
2023-04-15T21:58:49.837Z,1.35
2023-04-15T22:01:17.421Z,1.60
2023-04-15T22:03:44.501Z,1.27
2023-04-15T22:06:13.530Z,1.30
2023-04-15T22:08:55.207Z,1.40
2023-04-15T22:11:27.030Z,1.20
2023-04-15T22:13:54.694Z,1.63
2023-04-15T22:16:21.617Z,1.40
2023-04-15T22:18:48.933Z,1.30
2023-04-15T22:21:15.852Z,1.40
2023-04-15T22:23:46.238Z,1.48
2023-04-15T22:26:13.077Z,1.50
2023-04-15T22:28:39.932Z,1.95
2023-04-15T22:31:06.806Z,1.50
2023-04-15T22:33:33.883Z,1.65
2023-04-15T22:36:01.064Z,1.75
2023-04-15T22:38:27.907Z,1.45
2023-04-15T22:40:54.696Z,1.90
2023-04-15T22:43:21.683Z,1.70
2023-04-15T22:45:54.710Z,1.80
2023-04-15T22:48:21.573Z,1.45
2023-04-15T22:50:48.917Z,1.60
2023-04-15T22:53:17.432Z,1.67
2023-04-15T22:55:48.550Z,2.03
2023-04-15T22:58:17.058Z,1.92
2023-04-15T23:00:44.381Z,1.90
2023-04-15T23:03:11.558Z,1.98
2023-04-15T23:05:40.053Z,2.30
2023-04-15T23:08:07.557Z,2.50
2023-04-15T23:10:34.387Z,2.28
2023-04-15T23:13:01.147Z,2.15
2023-04-15T23:15:28.124Z,2.70
2023-04-15T23:17:54.958Z,3.13
2023-04-15T23:20:21.791Z,2.45
2023-04-15T23:22:48.529Z,2.40
2023-04-15T23:25:15.353Z,2.20
2023-04-15T23:27:42.144Z,2.25
2023-04-15T23:30:09.221Z,2.78
2023-04-15T23:32:36.347Z,2.08
2023-04-15T23:35:03.378Z,2.20
2023-04-15T23:37:33.693Z,2.00
2023-04-15T23:40:00.534Z,2.20
2023-04-15T23:42:27.351Z,1.80
2023-04-15T23:44:54.178Z,2.10
2023-04-15T23:47:21.779Z,2.00
2023-04-15T23:49:48.579Z,1.90
2023-04-15T23:52:15.750Z,1.63
2023-04-15T23:54:42.562Z,2.03
2023-04-15T23:57:09.359Z,1.80
2023-04-15T23:59:36.221Z,2.10
